Time;durP1;ratioP1;P1;durP2;ratioP2;P2;SDS_P1;SDS_P2;PMS_P1;PMS_P2;Temp;Humidity;BMP_temperature;BMP_pressure;BME280_temperature;BME280_humidity;BME280_pressure;Samples;Min_cycle;Max_cycle;Signal;HPM_P1;HPM_P2
2022/08/04 00:00:22;;;;;;;6.07;3.20;;;;;;;18.76;62.63;99964.41;4995976;28;20076;-86
2022/08/04 00:03:01;;;;;;;3.65;3.28;;;;;;;18.69;64.29;99965.59;4991534;28;20046;-86
2022/08/04 00:05:53;;;;;;;4.35;3.17;;;;;;;18.66;64.24;99965.81;5010678;28;20041;-85
2022/08/04 00:08:34;;;;;;;3.35;3.05;;;;;;;18.50;65.38;99962.31;5026499;28;20125;-86
2022/08/04 00:11:00;;;;;;;3.35;3.03;;;;;;;18.36;66.78;99960.34;5028154;28;20041;-86
2022/08/04 00:13:30;;;;;;;4.80;3.55;;;;;;;18.30;66.07;99951.09;5027360;28;20038;-85
2022/08/04 00:16:03;;;;;;;4.38;3.30;;;;;;;18.24;66.72;99952.31;5012087;28;20041;-86
2022/08/04 00:18:34;;;;;;;4.32;3.53;;;;;;;18.24;66.35;99953.03;5011832;28;20089;-82
2022/08/04 00:21:04;;;;;;;5.88;3.70;;;;;;;18.17;66.97;99951.44;5010157;28;20057;-82
2022/08/04 00:23:33;;;;;;;3.78;3.22;;;;;;;18.16;66.65;99957.53;5026842;28;20049;-82
2022/08/04 00:25:59;;;;;;;5.13;3.40;;;;;;;18.11;66.78;99961.06;4994245;28;20045;-82
2022/08/04 00:28:26;;;;;;;3.88;3.47;;;;;;;18.08;66.76;99954.38;5021387;28;20046;-82
2022/08/04 00:30:52;;;;;;;5.82;3.08;;;;;;;17.97;67.96;99947.84;5007587;28;20462;-82
2022/08/04 00:33:19;;;;;;;4.53;3.13;;;;;;;17.91;68.76;99959.03;5009258;28;20535;-82
2022/08/04 00:35:45;;;;;;;5.85;3.35;;;;;;;17.85;68.64;99954.56;5011595;28;20272;-86
2022/08/04 00:38:13;;;;;;;4.25;3.15;;;;;;;17.83;69.02;99959.91;5027474;28;20045;-82
2022/08/04 00:40:48;;;;;;;4.00;3.25;;;;;;;17.78;69.02;99957.78;5027735;28;20479;-81
2022/08/04 00:43:33;;;;;;;4.85;3.72;;;;;;;17.75;69.77;99961.59;5027659;28;20052;-82
2022/08/04 00:46:27;;;;;;;6.70;3.40;;;;;;;17.75;69.16;99961.59;5023723;28;20042;-82
2022/08/04 00:49:07;;;;;;;4.07;3.40;;;;;;;17.74;68.99;99971.25;5025949;28;20097;-82
2022/08/04 00:51:53;;;;;;;4.53;3.38;;;;;;;17.79;68.79;99964.97;5027568;28;20540;-82
2022/08/04 00:54:56;;;;;;;4.57;3.33;;;;;;;17.77;69.55;99971.03;5032244;28;20118;-82
2022/08/04 00:57:56;;;;;;;4.85;3.80;;;;;;;17.69;69.85;99975.50;5029892;28;20445;-82
2022/08/04 01:03:17;;;;;;;4.35;3.83;;;;;;;17.56;70.21;99966.59;5229836;22;20059;-84
2022/08/04 01:06:08;;;;;;;4.15;3.60;;;;;;;17.53;69.92;99970.41;5043676;28;20046;-84
2022/08/04 01:08:40;;;;;;;5.35;3.90;;;;;;;17.49;71.49;99967.00;5028765;28;20036;-84
2022/08/04 01:11:30;;;;;;;4.10;3.60;;;;;;;17.51;70.39;99970.88;5027914;28;20045;-84
2022/08/04 01:14:04;;;;;;;3.80;3.40;;;;;;;17.42;71.28;99970.22;5031588;28;20040;-83
2022/08/04 01:16:31;;;;;;;4.72;3.65;;;;;;;17.36;71.56;99970.13;5031719;28;20060;-84
2022/08/04 01:19:02;;;;;;;4.28;3.78;;;;;;;17.31;72.04;99965.19;5028077;28;20061;-83
2022/08/04 01:21:27;;;;;;;4.20;3.30;;;;;;;17.27;71.99;99961.06;5038610;28;20111;-84
2022/08/04 01:24:26;;;;;;;4.78;3.60;;;;;;;17.22;72.43;99970.94;5029818;28;20512;-84
2022/08/04 01:26:56;;;;;;;6.22;3.60;;;;;;;17.10;73.78;99955.19;5029475;28;20416;-84
2022/08/04 01:29:23;;;;;;;5.10;3.63;;;;;;;17.09;73.47;99953.63;5030790;28;20124;-84
2022/08/04 01:32:01;;;;;;;4.18;3.70;;;;;;;17.12;73.68;99961.06;5037300;28;20033;-84
2022/08/04 01:34:42;;;;;;;5.07;3.72;;;;;;;16.98;74.93;99956.25;5032128;28;20077;-83
2022/08/04 01:37:30;;;;;;;4.85;3.67;;;;;;;16.95;74.77;99949.56;5027093;28;20120;-83
2022/08/04 01:40:03;;;;;;;6.65;3.67;;;;;;;16.95;73.62;99945.97;5028550;28;20045;-84
2022/08/04 01:42:32;;;;;;;5.10;3.90;;;;;;;16.91;75.11;99951.00;5031806;28;20497;-84
2022/08/04 01:45:00;;;;;;;7.07;3.97;;;;;;;16.90;74.83;99949.47;5030517;28;20123;-84
2022/08/04 01:47:28;;;;;;;4.70;3.70;;;;;;;16.92;74.27;99949.75;5030592;28;20041;-84
2022/08/04 01:49:58;;;;;;;5.45;3.70;;;;;;;16.91;74.57;99946.19;5031496;28;20103;-84
2022/08/04 01:52:26;;;;;;;5.13;3.28;;;;;;;16.87;74.72;99945.59;5029309;28;20053;-84
2022/08/04 01:54:52;;;;;;;5.00;3.80;;;;;;;16.83;74.84;99955.44;5032204;28;20040;-84
2022/08/04 01:57:18;;;;;;;4.72;3.88;;;;;;;16.77;74.92;99941.34;5035263;28;20132;-84
2022/08/04 01:59:46;;;;;;;5.28;4.10;;;;;;;16.72;75.73;99945.59;5023222;28;20040;-84
2022/08/04 02:02:12;;;;;;;3.80;3.40;;;;;;;16.64;76.92;99938.03;5049836;28;20484;-83
2022/08/04 02:04:37;;;;;;;5.18;3.60;;;;;;;16.64;76.29;99946.44;5050722;28;20056;-84
2022/08/04 02:07:11;;;;;;;5.57;4.15;;;;;;;16.66;76.91;99941.91;5051740;28;20128;-83
2022/08/04 02:09:42;;;;;;;4.13;3.70;;;;;;;16.67;75.63;99940.66;5049510;28;20048;-84
2022/08/04 02:12:32;;;;;;;4.10;3.70;;;;;;;16.58;76.26;99932.31;5049729;28;20080;-83
2022/08/04 02:15:13;;;;;;;5.38;4.00;;;;;;;16.57;76.35;99933.59;5051252;28;20049;-84
2022/08/04 02:17:42;;;;;;;5.60;3.85;;;;;;;16.58;77.00;99943.53;5050519;28;20459;-84
2022/08/04 02:20:11;;;;;;;4.25;3.80;;;;;;;16.49;77.10;99938.00;5051352;28;20056;-84
2022/08/04 02:22:42;;;;;;;4.72;4.00;;;;;;;16.50;77.60;99933.19;5050050;28;20451;-84
2022/08/04 02:25:10;;;;;;;7.18;3.75;;;;;;;16.45;77.40;99943.00;5051419;28;20049;-84
2022/08/04 02:27:50;;;;;;;4.75;4.10;;;;;;;16.40;78.34;99940.09;5050903;28;20037;-84
2022/08/04 02:30:17;;;;;;;5.43;3.67;;;;;;;16.40;78.00;99924.06;5047202;28;20504;-84
2022/08/04 02:32:43;;;;;;;4.22;3.70;;;;;;;16.53;76.79;99932.22;5048507;28;20051;-84
2022/08/04 02:35:20;;;;;;;4.50;3.80;;;;;;;16.45;77.64;99937.41;5047521;28;20083;-84
2022/08/04 02:37:55;;;;;;;4.95;3.85;;;;;;;16.41;77.49;99925.63;5031992;28;20448;-84
2022/08/04 02:40:21;;;;;;;4.70;3.75;;;;;;;16.39;78.34;99932.94;5044871;28;20288;-84
2022/08/04 02:42:46;;;;;;;7.28;3.63;;;;;;;16.41;76.77;99931.22;5034904;28;20330;-84
2022/08/04 02:45:12;;;;;;;4.25;3.83;;;;;;;16.33;76.63;99924.44;5050342;28;20381;-84
2022/08/04 02:47:38;;;;;;;4.80;3.83;;;;;;;16.42;76.29;99927.16;5049031;28;20041;-84
2022/08/04 02:50:04;;;;;;;7.35;4.18;;;;;;;16.37;77.07;99924.25;5050236;28;20103;-85
2022/08/04 02:52:31;;;;;;;5.93;4.15;;;;;;;16.31;77.55;99921.34;5048472;28;20049;-84
2022/08/04 02:54:58;;;;;;;4.82;4.00;;;;;;;16.33;77.46;99918.84;5045581;28;20033;-84
2022/08/04 02:57:26;;;;;;;4.47;4.03;;;;;;;16.32;77.00;99917.31;5051355;28;20118;-84
2022/08/04 03:00:15;;;;;;;4.38;3.80;;;;;;;16.34;78.08;99928.78;5049665;28;20044;-84
2022/08/04 03:02:53;;;;;;;5.38;3.70;;;;;;;16.37;77.58;99922.25;5044348;28;20048;-84
2022/08/04 03:05:27;;;;;;;6.63;4.20;;;;;;;16.39;77.54;99911.31;5047758;28;20422;-84
2022/08/04 03:08:01;;;;;;;4.22;3.83;;;;;;;16.44;76.73;99919.06;5030847;28;20516;-84
2022/08/04 03:10:49;;;;;;;5.65;3.90;;;;;;;16.48;75.16;99924.47;5046324;28;20040;-84
2022/08/04 03:13:32;;;;;;;4.57;3.67;;;;;;;16.48;74.92;99921.69;5047147;28;20044;-83
2022/08/04 03:16:19;;;;;;;5.55;3.72;;;;;;;16.46;76.51;99919.34;5047004;28;20037;-84
2022/08/04 03:18:50;;;;;;;4.78;4.28;;;;;;;16.41;77.84;99925.63;5048680;28;20045;-84
2022/08/04 03:21:52;;;;;;;4.55;3.88;;;;;;;16.32;79.30;99923.69;5048310;28;20037;-84
2022/08/04 03:24:43;;;;;;;5.45;4.10;;;;;;;16.23;79.71;99920.16;5049174;28;20041;-84
2022/08/04 03:28:01;;;;;;;5.03;3.90;;;;;;;16.26;78.85;99924.81;5048355;28;20041;-84
2022/08/04 03:30:50;;;;;;;4.30;3.55;;;;;;;16.29;78.61;99924.63;4971782;28;20047;-84
2022/08/04 03:33:44;;;;;;;4.43;3.90;;;;;;;16.30;77.37;99926.16;5035910;28;20048;-84
2022/08/04 03:36:13;;;;;;;4.20;3.80;;;;;;;16.23;78.35;99920.94;5036875;28;20041;-84
2022/08/04 03:39:02;;;;;;;5.40;4.32;;;;;;;16.21;79.12;99923.47;5043633;28;20074;-83
2022/08/04 03:41:31;;;;;;;8.27;4.25;;;;;;;16.18;79.98;99923.63;5036422;28;20145;-83
2022/08/04 03:44:18;;;;;;;7.00;4.28;;;;;;;16.14;80.30;99931.41;5049023;28;20049;-83
2022/08/04 03:47:11;;;;;;;5.30;3.88;;;;;;;16.15;79.53;99924.59;5048904;28;20072;-84
2022/08/04 03:49:53;;;;;;;4.65;4.10;;;;;;;16.17;81.23;99922.09;5045499;28;20041;-85
2022/08/04 03:56:02;;;;;;;4.70;4.20;;;;;;;16.07;81.69;99929.00;5048466;28;20045;-83
2022/08/04 03:58:36;;;;;;;4.88;4.13;;;;;;;16.08;81.35;99928.53;5042031;28;20045;-83
2022/08/04 04:01:04;;;;;;;5.18;4.28;;;;;;;16.06;81.64;99927.44;5041820;28;20038;-83
2022/08/04 04:03:39;;;;;;;5.50;4.55;;;;;;;16.04;81.61;99929.97;5048743;28;20529;-83
2022/08/04 04:06:04;;;;;;;6.07;4.30;;;;;;;16.12;79.99;99931.13;5047850;28;20528;-83
2022/08/04 04:08:45;;;;;;;7.18;4.30;;;;;;;16.15;79.81;99933.75;5045341;28;20056;-84
2022/08/04 04:11:36;;;;;;;5.35;4.35;;;;;;;16.16;79.40;99931.72;5039980;28;20045;-84
2022/08/04 04:14:21;;;;;;;7.07;4.53;;;;;;;16.12;80.30;99931.13;5044813;28;20512;-83
2022/08/04 04:16:59;;;;;;;5.10;4.32;;;;;;;16.10;79.99;99940.00;5046661;28;20041;-83
2022/08/04 04:19:51;;;;;;;5.05;4.13;;;;;;;16.13;79.23;99938.28;5037137;28;20049;-83
2022/08/04 04:22:17;;;;;;;4.82;4.32;;;;;;;16.13;79.77;99938.28;5046903;28;20091;-83
2022/08/04 04:25:01;;;;;;;6.88;4.15;;;;;;;16.19;78.50;99936.38;5048357;28;20041;-84
2022/08/04 04:27:29;;;;;;;7.40;4.45;;;;;;;16.28;78.27;99930.72;5049703;28;20044;-84
2022/08/04 04:30:22;;;;;;;5.85;4.50;;;;;;;16.32;79.76;99939.69;5041393;28;20264;-84
2022/08/04 04:33:00;;;;;;;6.72;5.03;;;;;;;16.36;79.58;99940.28;5049815;28;20044;-84
2022/08/04 04:35:51;;;;;;;7.40;4.63;;;;;;;16.44;79.74;99949.09;5051424;28;20051;-84
2022/08/04 04:38:30;;;;;;;4.80;4.30;;;;;;;16.47;79.36;99937.69;5046465;28;20068;-84
2022/08/04 04:41:02;;;;;;;6.30;4.78;;;;;;;16.53;79.32;99949.00;5049455;28;20087;-84
2022/08/04 04:43:53;;;;;;;5.80;4.18;;;;;;;16.54;79.38;99940.13;5049080;28;20041;-84
2022/08/04 04:46:36;;;;;;;4.95;4.13;;;;;;;16.58;79.02;99949.13;5058734;28;20527;-83
2022/08/04 04:49:11;;;;;;;6.25;4.32;;;;;;;16.61;79.24;99950.22;5039698;28;20052;-84
2022/08/04 04:51:51;;;;;;;5.68;4.53;;;;;;;16.66;79.06;99953.09;5048739;28;20432;-83
2022/08/04 04:54:34;;;;;;;4.85;4.18;;;;;;;16.68;78.38;99955.44;5051390;28;20492;-83
2022/08/04 04:57:13;;;;;;;6.30;4.15;;;;;;;16.70;78.47;99956.50;5038860;28;20116;-83
2022/08/04 04:59:51;;;;;;;6.00;4.32;;;;;;;16.79;78.03;99956.41;5050811;28;20033;-83
2022/08/04 05:02:16;;;;;;;6.07;4.78;;;;;;;16.89;78.16;99957.09;5043818;28;20037;-83
2022/08/04 05:05:07;;;;;;;5.63;4.45;;;;;;;16.99;77.12;99963.38;5057930;28;20416;-82
2022/08/04 05:08:09;;;;;;;5.65;4.30;;;;;;;17.13;76.96;99959.81;5040413;28;20045;-82
2022/08/04 05:10:46;;;;;;;6.00;4.22;;;;;;;17.27;76.48;99961.81;5041701;28;20034;-83
2022/08/04 05:13:33;;;;;;;5.93;4.40;;;;;;;17.45;76.24;99956.00;5046002;28;20049;-84
2022/08/04 05:16:26;;;;;;;6.10;4.68;;;;;;;17.70;75.36;99957.44;5046908;28;20190;-84
2022/08/04 05:19:01;;;;;;;7.22;4.43;;;;;;;17.90;73.89;99962.31;5054665;28;20056;-85
2022/08/04 05:21:37;;;;;;;10.65;7.43;;;;;;;18.20;72.80;99969.31;5054775;28;20467;-84
2022/08/04 05:24:06;;;;;;;11.45;10.35;;;;;;;18.41;70.43;99982.13;5072159;28;20044;-84
2022/08/04 05:26:38;;;;;;;5.45;4.15;;;;;;;18.51;69.73;99966.66;5054803;28;20071;-84
2022/08/04 05:29:10;;;;;;;5.78;4.15;;;;;;;18.64;68.87;99974.75;5054595;28;20045;-85
2022/08/04 05:31:44;;;;;;;6.00;4.22;;;;;;;18.89;67.51;99974.00;5054600;28;20051;-85
2022/08/04 05:34:23;;;;;;;;;;;;;;;19.17;66.65;99970.69;5054824;28;20049;-85
2022/08/04 05:36:51;;;;;;;6.15;4.47;;;;;;;19.50;65.45;99976.59;5053560;28;19989;-84
2022/08/04 05:39:41;;;;;;;5.00;4.13;;;;;;;19.85;64.58;99988.38;5053173;28;20246;-84
2022/08/04 05:42:06;;;;;;;14.90;4.15;;;;;;;20.11;63.74;99979.81;5072019;28;20048;-84
2022/08/04 05:44:33;;;;;;;8.70;4.30;;;;;;;20.33;63.67;99977.16;5072125;28;20033;-84
2022/08/04 05:46:59;;;;;;;7.32;4.30;;;;;;;20.60;62.25;99969.28;5042693;28;20048;-84
2022/08/04 05:49:27;;;;;;;8.52;3.97;;;;;;;20.92;61.29;99981.94;5045787;28;20052;-84
2022/08/04 05:51:54;;;;;;;6.43;4.28;;;;;;;21.30;59.24;99969.97;5031176;28;20037;-84
2022/08/04 05:54:20;;;;;;;8.35;3.97;;;;;;;21.52;58.68;99974.03;5051586;28;20087;-85
2022/08/04 05:56:47;;;;;;;4.80;3.53;;;;;;;21.65;58.07;99960.94;5032197;28;20140;-86
2022/08/04 05:59:14;;;;;;;7.47;3.92;;;;;;;21.96;57.35;99974.00;5044669;28;20140;-83
2022/08/04 06:01:40;;;;;;;8.60;3.67;;;;;;;22.25;56.47;99984.72;5057160;28;20502;-86
2022/08/04 06:04:05;;;;;;;6.82;3.72;;;;;;;22.49;56.42;99980.50;5047702;28;20049;-85
2022/08/04 06:06:31;;;;;;;10.85;4.60;;;;;;;22.72;56.05;99976.31;5058138;28;20259;-85
2022/08/04 06:08:57;;;;;;;8.13;4.18;;;;;;;22.97;55.38;99975.13;5044106;28;20040;-86
2022/08/04 06:11:25;;;;;;;15.05;9.40;;;;;;;23.16;55.06;99981.69;5044298;28;20041;-85
2022/08/04 06:13:53;;;;;;;8.68;4.35;;;;;;;23.31;54.89;99986.97;5047325;28;20037;-84
2022/08/04 06:16:22;;;;;;;11.95;4.55;;;;;;;23.34;54.85;99982.31;5047077;28;20782;-84
2022/08/04 06:18:49;;;;;;;9.60;4.40;;;;;;;23.47;54.50;99983.28;5042125;28;20179;-84
2022/08/04 06:21:17;;;;;;;6.72;4.05;;;;;;;23.66;54.61;99978.47;5049432;28;20063;-84
2022/08/04 06:23:44;;;;;;;7.65;3.70;;;;;;;23.95;53.30;99993.13;5038782;28;20590;-86
2022/08/04 06:26:10;;;;;;;3.92;3.50;;;;;;;23.95;53.85;99987.44;5039772;28;20102;-85
2022/08/04 06:28:36;;;;;;;5.05;3.60;;;;;;;24.24;53.08;99988.72;5046828;28;20069;-84
2022/08/04 06:31:04;;;;;;;7.10;4.07;;;;;;;24.53;51.80;99990.69;5039834;28;20052;-85
2022/08/04 06:33:33;;;;;;;6.18;3.83;;;;;;;24.82;51.01;99989.78;5036639;28;20028;-85
2022/08/04 06:36:05;;;;;;;6.75;3.38;;;;;;;25.22;49.78;99987.94;5038614;28;20033;-85
2022/08/04 06:38:31;;;;;;;6.03;3.83;;;;;;;25.44;48.54;99981.88;5037752;28;20037;-85
2022/08/04 06:40:58;;;;;;;8.10;3.85;;;;;;;25.59;47.71;99987.09;5039976;28;20045;-84
2022/08/04 06:43:25;;;;;;;5.60;3.80;;;;;;;25.65;48.33;99996.25;5043348;28;20053;-83
2022/08/04 06:45:52;;;;;;;7.57;4.03;;;;;;;25.91;48.19;99987.81;5040958;28;20113;-85
2022/08/04 06:48:18;;;;;;;6.45;4.25;;;;;;;26.07;46.09;99979.50;5031067;28;20628;-86
2022/08/04 06:50:47;;;;;;;6.53;3.90;;;;;;;26.19;45.93;99992.19;5049026;28;20120;-87
2022/08/04 06:53:12;;;;;;;7.00;3.72;;;;;;;26.17;46.68;99989.09;5049141;28;20029;-85
2022/08/04 06:55:41;;;;;;;5.95;3.72;;;;;;;26.17;46.81;99989.09;5032255;28;20041;-88
2022/08/04 06:58:06;;;;;;;7.90;3.65;;;;;;;26.41;46.61;99986.06;5051088;28;20049;-83
2022/08/04 07:00:33;;;;;;;6.32;3.83;;;;;;;26.80;46.15;99988.88;5044203;28;20113;-87
2022/08/04 07:02:59;;;;;;;5.60;4.03;;;;;;;27.06;44.71;99987.25;5061093;28;20049;-87
2022/08/04 07:05:24;;;;;;;6.47;3.72;;;;;;;27.07;44.93;99985.94;5048575;28;20175;-87
2022/08/04 07:07:50;;;;;;;7.10;3.70;;;;;;;27.37;44.93;99989.13;5049251;28;20109;-87
2022/08/04 07:10:17;;;;;;;8.45;4.03;;;;;;;27.70;44.27;99990.38;5047369;28;20087;-86
2022/08/04 07:12:42;;;;;;;8.02;3.65;;;;;;;27.93;44.16;99987.72;5043857;28;20042;-88
2022/08/04 07:15:09;;;;;;;5.20;3.50;;;;;;;28.00;44.76;99987.75;5047593;28;20442;-87
2022/08/04 07:17:36;;;;;;;5.35;3.60;;;;;;;27.98;44.50;99983.94;5048130;28;20049;-87
2022/08/04 07:20:05;;;;;;;7.20;3.67;;;;;;;28.40;43.24;99991.06;5049260;28;20036;-86
2022/08/04 07:22:31;;;;;;;7.82;3.70;;;;;;;28.65;42.91;99992.16;5048833;28;20041;-87
2022/08/04 07:24:57;;;;;;;15.60;4.72;;;;;;;28.69;41.16;99995.44;5042292;28;20034;-87
2022/08/04 07:27:24;;;;;;;6.15;3.60;;;;;;;28.80;40.00;99993.56;5044512;28;20442;-86
2022/08/04 07:29:50;;;;;;;7.05;3.78;;;;;;;28.68;36.73;99988.16;5043465;28;20124;-87
2022/08/04 07:32:19;;;;;;;6.75;3.33;;;;;;;28.51;39.18;99985.03;5044039;28;20112;-87
2022/08/04 07:34:46;;;;;;;5.80;3.30;;;;;;;28.69;40.11;99992.56;5041546;28;20033;-87
2022/08/04 07:37:15;;;;;;;4.43;3.17;;;;;;;28.49;37.25;99990.56;5045974;28;20044;-88
2022/08/04 07:39:40;;;;;;;5.32;3.72;;;;;;;28.37;38.48;99980.78;5048108;28;20029;-87
2022/08/04 07:42:06;;;;;;;6.20;3.17;;;;;;;28.38;37.71;99993.72;5049272;28;20040;-85
2022/08/04 07:44:33;;;;;;;4.80;3.40;;;;;;;28.46;37.66;99988.84;5045248;28;20033;-85
2022/08/04 07:47:01;;;;;;;8.57;3.60;;;;;;;28.53;39.10;99985.25;5047127;28;20041;-85
2022/08/04 07:49:26;;;;;;;5.50;3.47;;;;;;;28.66;38.40;99985.13;5047050;28;20091;-85
2022/08/04 07:51:52;;;;;;;6.68;3.88;;;;;;;28.82;37.63;99985.19;5046171;28;20044;-85
2022/08/04 07:54:19;;;;;;;5.40;3.90;;;;;;;28.82;37.60;99990.91;5047542;28;20039;-85
2022/08/04 07:56:45;;;;;;;4.45;3.75;;;;;;;28.87;38.37;99987.13;5047175;28;20048;-86
2022/08/04 07:59:10;;;;;;;5.20;3.80;;;;;;;29.15;38.67;99995.59;5046111;28;20061;-86
2022/08/04 08:01:36;;;;;;;8.45;4.22;;;;;;;29.32;37.94;99992.22;5046959;28;20088;-85
2022/08/04 08:04:04;;;;;;;6.28;4.07;;;;;;;29.65;37.86;99999.66;5051137;28;20662;-85
2022/08/04 08:06:30;;;;;;;6.22;4.10;;;;;;;29.88;37.62;100002.56;5051683;28;20132;-86
2022/08/04 08:08:55;;;;;;;6.95;4.20;;;;;;;29.77;37.25;100002.91;5050632;28;20325;-85
2022/08/04 08:11:21;;;;;;;5.05;4.38;;;;;;;29.20;38.53;100003.19;5051823;28;20045;-85
2022/08/04 08:13:47;;;;;;;5.68;3.95;;;;;;;29.61;37.73;99997.19;5051573;28;20049;-86
2022/08/04 08:16:13;;;;;;;5.68;4.15;;;;;;;29.62;37.65;100003.66;5052203;28;20049;-85
2022/08/04 08:18:38;;;;;;;5.18;4.00;;;;;;;29.42;37.20;100002.50;5052023;28;20056;-84
2022/08/04 08:21:04;;;;;;;6.72;4.15;;;;;;;29.54;39.27;100003.66;5051643;28;20098;-86
2022/08/04 08:23:31;;;;;;;6.40;4.25;;;;;;;29.41;37.28;100000.97;5052872;28;20057;-85
2022/08/04 08:25:57;;;;;;;6.78;4.20;;;;;;;29.64;37.72;100001.75;5052725;28;20041;-85
2022/08/04 08:28:23;;;;;;;5.82;4.13;;;;;;;30.07;38.83;99997.19;5052515;28;20045;-84
2022/08/04 08:30:49;;;;;;;5.25;4.22;;;;;;;29.51;35.64;99996.25;5052942;28;20051;-86
2022/08/04 08:33:15;;;;;;;4.38;3.97;;;;;;;30.22;35.46;99999.25;5052465;28;20044;-86
2022/08/04 08:35:48;;;;;;;5.57;4.30;;;;;;;30.39;36.89;99993.69;5051706;28;20528;-84
2022/08/04 08:38:13;;;;;;;;;;;;;;;30.48;36.66;99993.88;5042575;28;20111;-86
2022/08/04 08:40:47;;;;;;;6.25;4.13;;;;;;;30.94;34.96;99996.53;5040086;28;20384;-85
2022/08/04 08:43:22;;;;;;;10.48;4.47;;;;;;;31.19;35.08;99990.88;5050596;28;20106;-86
2022/08/04 08:46:15;;;;;;;4.63;4.18;;;;;;;30.96;33.45;99993.88;5050950;28;20130;-86
2022/08/04 08:48:46;;;;;;;;;;;;;;;30.34;34.23;99991.78;5030549;28;20523;-88
2022/08/04 08:51:18;;;;;;;4.80;4.07;;;;;;;30.98;34.19;99994.03;5069089;28;19993;-88
2022/08/04 08:54:21;;;;;;;6.32;4.10;;;;;;;31.30;32.63;99988.34;5053488;28;20407;-87
2022/08/04 08:57:13;;;;;;;5.68;4.38;;;;;;;31.06;35.83;99991.19;5041399;28;20041;-86
2022/08/04 08:59:42;;;;;;;4.75;3.97;;;;;;;31.48;33.03;99989.16;5032249;28;20048;-87
2022/08/04 09:02:39;;;;;;;6.32;4.07;;;;;;;31.69;34.79;99977.38;5065174;28;20040;-87
2022/08/04 09:05:12;;;;;;;6.22;4.35;;;;;;;31.88;35.59;99980.44;5037948;28;20587;-86
2022/08/04 09:08:00;;;;;;;4.95;4.10;;;;;;;31.86;33.80;99986.78;5048739;28;20041;-86
2022/08/04 09:10:27;;;;;;;5.88;4.00;;;;;;;32.38;33.14;99987.63;5037361;28;20049;-87
2022/08/04 09:13:05;;;;;;;5.65;4.30;;;;;;;32.49;34.27;99982.72;5042584;28;20057;-87
2022/08/04 09:15:38;;;;;;;4.85;4.20;;;;;;;32.70;33.39;99980.19;5036225;28;20050;-88
2022/08/04 09:18:24;;;;;;;4.38;3.80;;;;;;;32.92;33.01;99984.84;5046866;28;20508;-88
2022/08/04 09:20:59;;;;;;;6.78;4.20;;;;;;;32.71;33.21;99988.22;5041218;28;20049;-90
2022/08/04 09:23:48;;;;;;;5.50;4.40;;;;;;;32.58;32.42;99982.03;5035358;28;20049;-88
2022/08/04 09:26:45;;;;;;;5.25;4.18;;;;;;;32.88;33.43;99987.41;5035054;28;20049;-88
2022/08/04 09:29:35;;;;;;;4.97;4.10;;;;;;;33.04;31.98;99980.09;5020340;28;20045;-85
2022/08/04 09:32:10;;;;;;;5.03;3.40;;;;;;;33.32;30.01;99986.63;5051450;28;20049;-86
2022/08/04 09:35:15;;;;;;;4.55;3.88;;;;;;;33.51;29.84;99975.97;5041864;28;20063;-85
2022/08/04 09:37:45;;;;;;;4.13;3.72;;;;;;;33.39;31.25;99975.00;5047644;28;20045;-85
2022/08/04 09:40:25;;;;;;;7.05;4.40;;;;;;;33.46;29.69;99973.38;5034662;28;20045;-86
2022/08/04 09:43:12;;;;;;;6.40;4.18;;;;;;;33.82;26.79;99976.25;5040746;28;20042;-86
2022/08/04 09:46:07;;;;;;;4.32;3.38;;;;;;;33.59;26.98;99972.97;5047965;28;20496;-86
2022/08/04 09:48:39;;;;;;;5.32;3.63;;;;;;;34.01;29.21;99969.78;5049914;28;20044;-86
2022/08/04 09:51:13;;;;;;;4.78;3.40;;;;;;;34.42;25.79;99967.84;5037707;28;20056;-85
2022/08/04 09:53:54;;;;;;;6.43;3.50;;;;;;;34.23;25.46;99964.97;5029980;28;20069;-85
2022/08/04 09:56:37;;;;;;;5.25;3.90;;;;;;;34.57;25.55;99967.56;5035493;28;20049;-86
2022/08/04 09:59:11;;;;;;;;;;;;;;;34.81;25.21;99960.72;5039009;28;20658;-87
2022/08/04 10:01:37;;;;;;;3.72;3.30;;;;;;;34.82;25.24;99952.84;5047825;28;20109;-86
2022/08/04 10:04:08;;;;;;;4.10;3.70;;;;;;;34.32;25.77;99956.34;5045624;28;20579;-86
2022/08/04 10:06:59;;;;;;;3.50;2.97;;;;;;;34.63;21.69;99948.59;5023850;28;20500;-86
2022/08/04 10:09:49;;;;;;;4.45;3.10;;;;;;;34.94;20.09;99945.06;5055250;28;20467;-86
2022/08/04 10:12:26;;;;;;;4.15;2.90;;;;;;;35.08;20.18;99946.84;5044918;28;20110;-86
2022/08/04 10:15:16;;;;;;;4.25;3.15;;;;;;;34.99;22.88;99938.22;5048833;28;20036;-86
2022/08/04 10:17:56;;;;;;;4.38;3.25;;;;;;;35.38;22.20;99933.88;5049788;28;20044;-86
2022/08/04 10:20:53;;;;;;;4.68;3.67;;;;;;;35.51;22.85;99941.97;5035242;28;20053;-86
2022/08/04 10:23:57;;;;;;;3.97;3.25;;;;;;;34.91;22.39;99932.63;5031387;28;20053;-86
2022/08/04 10:26:47;;;;;;;4.15;3.75;;;;;;;34.77;22.00;99948.91;5031015;28;20052;-84
2022/08/04 10:29:21;;;;;;;6.07;3.30;;;;;;;34.77;21.31;99939.50;5031303;28;20080;-87
2022/08/04 10:32:08;;;;;;;4.28;2.83;;;;;;;34.47;20.61;99946.63;5056600;28;20037;-87
2022/08/04 10:35:16;;;;;;;3.30;3.00;;;;;;;35.00;21.00;99940.50;5053523;28;20135;-85
2022/08/04 10:38:05;;;;;;;3.70;2.97;;;;;;;34.66;21.43;99935.09;4992957;28;20041;-84
2022/08/04 10:40:35;;;;;;;5.07;3.03;;;;;;;34.49;20.07;99923.75;5065372;22;20199;-85
2022/08/04 10:43:19;;;;;;;4.47;3.00;;;;;;;34.62;21.10;99934.78;5049941;28;20057;-84
2022/08/04 10:46:08;;;;;;;3.85;2.90;;;;;;;34.49;22.63;99927.41;5050053;28;20623;-84
2022/08/04 10:48:56;;;;;;;6.05;3.25;;;;;;;34.78;21.08;99927.34;5050264;28;20504;-84
2022/08/04 10:51:32;;;;;;;5.03;3.47;;;;;;;34.75;21.60;99924.94;5050322;28;20482;-84
2022/08/04 10:54:05;;;;;;;4.00;3.58;;;;;;;34.75;23.89;99933.56;5049944;28;20128;-84
2022/08/04 10:56:48;;;;;;;5.20;3.35;;;;;;;34.60;22.29;99920.25;5050146;28;20136;-84
2022/08/04 10:59:25;;;;;;;4.57;3.60;;;;;;;34.58;21.94;99917.19;5046760;28;20048;-85
2022/08/04 11:01:54;;;;;;;4.15;3.67;;;;;;;34.50;22.57;99919.47;5043128;28;20049;-82
2022/08/04 11:04:35;;;;;;;4.53;3.70;;;;;;;34.66;21.99;99914.22;5026912;28;20033;-83
2022/08/04 11:07:00;;;;;;;5.05;3.63;;;;;;;34.60;22.17;99911.59;5042880;28;20045;-82
2022/08/04 11:09:28;;;;;;;3.90;3.50;;;;;;;34.43;21.67;99917.53;5027471;28;20528;-83
2022/08/04 11:12:00;;;;;;;4.60;3.75;;;;;;;34.60;20.79;99920.25;5029550;28;20040;-84
2022/08/04 11:14:31;;;;;;;4.03;3.13;;;;;;;34.67;20.36;99907.81;5050002;28;20049;-84
2022/08/04 11:17:00;;;;;;;5.90;2.80;;;;;;;35.27;18.46;99899.13;5033267;28;20045;-83
2022/08/04 11:19:35;;;;;;;4.80;2.95;;;;;;;35.22;19.18;99908.91;5049529;28;20562;-83
2022/08/04 11:22:08;;;;;;;3.85;2.90;;;;;;;35.43;19.58;99903.91;5050719;28;20095;-84
2022/08/04 11:24:44;;;;;;;3.67;2.50;;;;;;;35.73;18.10;99896.63;5055420;28;20583;-82
2022/08/04 11:27:15;;;;;;;3.60;2.90;;;;;;;35.27;18.02;99893.38;5040806;28;20041;-84
2022/08/04 11:30:00;;;;;;;3.72;2.63;;;;;;;35.48;18.10;99902.84;5044398;28;20098;-85
2022/08/04 11:33:06;;;;;;;4.47;2.67;;;;;;;35.43;17.80;99897.38;5045144;28;20041;-84
2022/08/04 11:35:41;;;;;;;2.85;2.55;;;;;;;35.48;18.08;99896.31;4988864;28;20046;-83
2022/08/04 11:38:44;;;;;;;2.75;2.55;;;;;;;35.54;17.36;99900.38;5025064;28;20137;-85
2022/08/04 11:41:13;;;;;;;6.32;2.90;;;;;;;35.53;17.70;99893.09;5045891;28;20399;-85
2022/08/04 11:43:54;;;;;;;4.05;2.75;;;;;;;35.61;18.41;99898.66;5050087;28;20036;-84
2022/08/04 11:46:50;;;;;;;4.78;2.90;;;;;;;35.88;18.85;99893.34;5046300;28;20059;-84
2022/08/04 11:49:33;;;;;;;3.40;2.50;;;;;;;35.99;17.72;99898.41;5048204;28;20045;-84
2022/08/04 11:52:01;;;;;;;3.08;2.78;;;;;;;35.76;18.14;99886.75;5047291;28;20511;-85
2022/08/04 11:54:27;;;;;;;4.30;2.88;;;;;;;35.77;17.95;99888.25;5024791;28;20411;-83
2022/08/04 11:56:53;;;;;;;2.85;2.50;;;;;;;35.44;17.89;99893.13;5048438;28;20044;-85
2022/08/04 11:59:22;;;;;;;3.00;2.70;;;;;;;35.73;17.90;99879.31;5047937;28;20045;-86
2022/08/04 12:01:51;;;;;;;4.55;2.92;;;;;;;35.95;17.95;99886.59;5040751;28;20044;-83
2022/08/04 12:04:35;;;;;;;4.88;2.60;;;;;;;35.97;17.86;99883.84;5046916;28;20051;-84
2022/08/04 12:07:39;;;;;;;3.42;2.90;;;;;;;35.85;18.02;99871.50;5036688;28;20148;-84
2022/08/04 12:10:37;;;;;;;3.15;2.85;;;;;;;36.19;18.43;99880.97;5032660;28;20049;-84
2022/08/04 12:13:30;;;;;;;4.78;2.88;;;;;;;36.19;18.87;99875.94;5049648;28;20416;-84
2022/08/04 12:16:02;;;;;;;4.15;3.20;;;;;;;36.11;17.43;99874.66;5045237;28;20103;-84
2022/08/04 12:18:38;;;;;;;3.45;3.15;;;;;;;35.74;19.26;99883.72;5033356;28;20080;-83